FW7625 Weather Reports


Display with metric or nautical units.
time (UTC)temp
F
wind
direction
speed
MPH
gust
MPH
rain 1hr
in
rain 24hr
in
rain mn
in
humidity
%
barometer
mb
20260503204655 79 312 0.0 2.0 0.00 0.00 0.00 50 1012.7
20260503204153 78 332 0.0 2.0 0.00 0.00 0.00 49 1012.7
20260503203649 78 325 2.0 4.0 0.00 0.00 0.00 49 1013.0
20260503203147 79 0 1.0 1.0 0.00 0.00 0.00 54 1013.0
20260503202644 78 287 1.0 2.0 0.00 0.00 0.00 48 1013.3
20260503202142 78 279 1.0 2.0 0.00 0.00 0.00 49 1013.3
20260503201640 78 30 2.0 3.0 0.00 0.00 0.00 52 1013.0
20260503201137 77 79 1.0 1.0 0.00 0.00 0.00 52 1013.0
20260503200633 77 214 1.0 2.0 0.00 0.00 0.00 52 1013.3
20260503200130 77 322 0.0 2.0 0.00 0.00 0.00 51 1013.3
20260503195627 77 308 0.0 2.0 0.00 0.00 0.00 53 1013.3
20260503195124 77 270 0.0 2.0 0.00 0.00 0.00 52 1013.3
20260503194621 76 323 0.0 3.0 0.00 0.00 0.00 54 1013.7
20260503194116 76 270 2.0 2.0 0.00 0.00 0.00 53 1013.7
20260503193613 76 359 1.0 2.0 0.00 0.00 0.00 55 1013.7
20260503193108 76 182 2.0 2.0 0.00 0.00 0.00 56 1013.7
20260503192604 75 235 2.0 3.0 0.00 0.00 0.00 54 1013.7
20260503192100 75 11 2.0 2.0 0.00 0.00 0.00 57 1013.7
20260503191557 75 53 2.0 3.0 0.00 0.00 0.00 57 1014.0
20260503191054 75 243 2.0 3.0 0.00 0.00 0.00 57 1014.0
20260503190551 75 281 2.0 3.0 0.00 0.00 0.00 57 1014.0
20260503190048 75 248 1.0 1.0 0.00 0.00 0.00 57 1014.0
20260503185544 75 292 0.0 1.0 0.00 0.00 0.00 59 1014.0
20260503185044 73 35 0.0 2.0 0.00 0.00 0.00 63 1014.3
20260503184540 74 349 1.0 1.0 0.00 0.00 0.00 62 1014.3
20260503184037 73 5 0.0 2.0 0.00 0.00 0.00 62 1014.3
20260503183534 73 59 2.0 2.0 0.00 0.00 0.00 62 1014.3
20260503183031 73 340 0.0 4.0 0.00 0.00 0.00 62 1014.3
20260503182529 73 332 0.0 1.0 0.00 0.00 0.00 61 1014.3
20260503182027 73 314 0.0 1.0 0.00 0.00 0.00 62 1014.3
20260503181524 72 288 0.0 2.0 0.00 0.00 0.00 62 1014.3
20260503181020 71 40 1.0 2.0 0.00 0.00 0.00 62 1014.3
20260503180518 72 346 0.0 2.0 0.00 0.00 0.00 61 1014.3
20260503180015 72 34 0.0 1.0 0.00 0.00 0.00 65 1014.3
20260503175512 71 13 1.0 3.0 0.00 0.00 0.00 64 1014.3
20260503175009 72 325 0.0 1.0 0.00 0.00 0.00 63 1014.3
20260503174507 71 55 1.0 3.0 0.00 0.00 0.00 64 1014.3
20260503174002 69 291 0.0 3.0 0.00 0.00 0.00 61 1014.3
20260503173457 70 323 1.0 2.0 0.00 0.00 0.00 63 1014.3
20260503172954 70 71 1.0 1.0 0.00 0.00 0.00 63 1014.7
20260503172452 71 59 1.0 2.0 0.00 0.00 0.00 60 1014.7
20260503171948 70 315 1.0 1.0 0.00 0.00 0.00 65 1014.7
20260503171445 69 286 2.0 3.0 0.00 0.00 0.00 61 1014.7
20260503170943 70 330 0.0 1.0 0.00 0.00 0.00 64 1014.7
20260503170438 70 310 0.0 0.0 0.00 0.00 0.00 64 1014.7
20260503150831 68 36 1.0 1.0 0.00 0.00 0.00 67 1014.7
20260503150327 67 337 0.0 1.0 0.00 0.00 0.00 67 1015.0
20260503140251 54 8 0.0 0.0 0.00 0.00 0.00 96 1014.7
20260503131221 52 37 0.0 0.0 0.00 0.00 0.00 97 1014.7
20260503130719 51 17 0.0 0.0 0.00 0.00 0.00 96 1014.7
20260503130216 51 9 0.0 0.0 0.00 0.00 0.00 96 1014.7
20260503120141 53 82 0.0 1.0 0.00 0.00 0.00 94 1015.0
20260503110609 54 95 0.0 1.0 0.00 0.00 0.00 89 1015.4
20260503110106 54 93 1.0 1.0 0.00 0.00 0.00 88 1014.7
20260503090456 56 55 0.0 0.0 0.00 0.00 0.00 78 1015.4
20260503081422 57 9 0.0 0.0 0.00 0.00 0.00 76 1015.4
20260503080919 57 9 0.0 0.0 0.00 0.00 0.00 76 1015.4
20260503080416 58 5 0.0 0.0 0.00 0.00 0.00 75 1015.4
20260503072852 59 33 0.0 0.0 0.00 0.00 0.00 70 1015.4
20260503072349 59 27 0.0 0.0 0.00 0.00 0.00 69 1015.4
20260503071846 59 12 0.0 0.0 0.00 0.00 0.00 69 1015.4
20260503071343 60 24 0.0 0.0 0.00 0.00 0.00 68 1015.4
20260503070839 60 14 0.0 0.0 0.00 0.00 0.00 68 1015.4
20260503070337 60 20 0.0 0.0 0.00 0.00 0.00 68 1015.4
20260503060303 62 358 0.0 0.0 0.00 0.00 0.00 63 1015.4
20260503054750 63 2 0.0 0.0 0.00 0.00 0.00 60 1015.0
20260503054246 63 325 0.0 0.0 0.00 0.00 0.00 60 1015.0
20260503053744 63 325 0.0 0.0 0.00 0.00 0.00 60 1015.0
20260503053243 64 323 0.0 0.0 0.00 0.00 0.00 59 1015.0
20260503052738 64 332 0.0 0.0 0.00 0.00 0.00 59 1015.0
20260503052235 64 326 0.0 1.0 0.00 0.00 0.00 59 1015.0
20260503051730 64 14 0.0 0.0 0.00 0.00 0.00 58 1014.7
20260503051228 64 316 0.0 0.0 0.00 0.00 0.00 58 1015.0
20260503050724 64 320 0.0 1.0 0.00 0.00 0.00 58 1014.7
20260503050221 65 338 0.0 0.0 0.00 0.00 0.00 57 1015.0
20260503045719 65 350 0.0 1.0 0.00 0.00 0.00 56 1015.0
20260503045216 64 331 0.0 0.0 0.00 0.00 0.00 59 1014.7
20260503044712 64 321 0.0 0.0 0.00 0.00 0.00 58 1015.0
20260503044210 65 315 0.0 1.0 0.00 0.00 0.00 58 1014.7
20260503043706 65 315 0.0 0.0 0.00 0.00 0.00 57 1014.7
20260503043204 65 307 0.0 1.0 0.00 0.00 0.00 57 1014.7
20260503042659 66 313 0.0 1.0 0.00 0.00 0.00 57 1014.7
20260503042156 65 284 1.0 1.0 0.00 0.00 0.00 58 1014.7
20260503041652 66 12 0.0 2.0 0.00 0.00 0.00 58 1014.7
20260503041150 65 320 0.0 1.0 0.00 0.00 0.00 60 1014.3
20260503040648 65 323 0.0 1.0 0.00 0.00 0.00 62 1014.3
20260503040145 65 338 0.0 0.0 0.00 0.00 0.00 63 1014.7
20260503035641 65 320 0.0 0.0 0.00 0.00 0.00 64 1014.3
20260503035139 66 325 0.0 0.0 0.00 0.00 0.00 65 1014.3
20260503034636 66 319 0.0 1.0 0.00 0.00 0.00 64 1014.3
20260503034133 66 5 0.0 1.0 0.00 0.00 0.00 65 1014.3
20260503033630 66 335 0.0 0.0 0.00 0.00 0.00 65 1014.3
20260503033128 67 18 0.0 1.0 0.00 0.00 0.00 65 1014.0
20260503032626 67 6 0.0 1.0 0.00 0.00 0.00 64 1013.7
20260503032125 68 335 0.0 1.0 0.00 0.00 0.00 63 1014.0
20260503031622 68 335 0.0 2.0 0.00 0.00 0.00 62 1014.0
20260503031119 68 356 1.0 2.0 0.00 0.00 0.00 63 1014.0
20260503030615 68 329 0.0 2.0 0.00 0.00 0.00 63 1013.7
20260503030112 68 322 0.0 0.0 0.00 0.00 0.00 65 1013.7
20260503025609 69 35 0.0 1.0 0.00 0.00 0.00 62 1013.7
20260503025107 69 21 0.0 1.0 0.00 0.00 0.00 62 1013.7
20260503024602 70 346 0.0 0.0 0.00 0.00 0.00 62 1013.7
20260503024100 70 3 0.0 3.0 0.00 0.00 0.00 61 1013.3
20260503023556 71 325 2.0 3.0 0.00 0.00 0.00 60 1013.7
20260503023054 71 306 3.0 4.0 0.00 0.00 0.00 59 1013.7
20260503022550 72 28 1.0 2.0 0.00 0.00 0.00 60 1013.7
20260503022044 72 119 1.0 2.0 0.00 0.00 0.00 59 1013.7
20260503021542 73 40 1.0 2.0 0.00 0.00 0.00 58 1013.7
20260503021039 74 14 0.0 1.0 0.00 0.00 0.00 58 1013.7
20260503020536 73 1 0.0 1.0 0.00 0.00 0.00 59 1013.7
20260503020033 74 330 0.0 1.0 0.00 0.00 0.00 57 1013.7
20260503015529 74 27 1.0 2.0 0.00 0.00 0.00 57 1013.7
20260503015027 75 3 0.0 1.0 0.00 0.00 0.00 59 1013.3
20260503014522 75 318 0.0 1.0 0.00 0.00 0.00 58 1013.7
20260503014021 74 1 1.0 4.0 0.00 0.00 0.00 55 1013.7
20260503013517 74 76 1.0 2.0 0.00 0.00 0.00 57 1013.7
20260503013015 75 14 2.0 3.0 0.00 0.00 0.00 53 1013.7
20260503012513 74 357 0.0 1.0 0.00 0.00 0.00 57 1013.7
20260503012009 75 31 1.0 2.0 0.00 0.00 0.00 55 1014.0
20260503011506 75 21 0.0 1.0 0.00 0.00 0.00 56 1013.7
20260503011003 75 354 0.0 2.0 0.00 0.00 0.00 54 1013.7
20260503010459 75 311 0.0 1.0 0.00 0.00 0.00 54 1013.7
20260503005956 75 8 0.0 2.0 0.00 0.00 0.00 55 1013.7
20260503005453 75 39 1.0 2.0 0.00 0.00 0.00 55 1013.7
20260503004950 75 354 2.0 3.0 0.00 0.00 0.00 54 1013.7
20260503004447 76 345 2.0 2.0 0.00 0.00 0.00 54 1013.7
20260503003945 75 44 1.0 2.0 0.00 0.00 0.00 53 1013.7
20260503003441 76 316 0.0 2.0 0.00 0.00 0.00 54 1014.0
20260503002938 76 5 1.0 1.0 0.00 0.00 0.00 54 1013.7
20260503002435 75 36 2.0 4.0 0.00 0.00 0.00 56 1013.7
20260503001932 74 71 1.0 3.0 0.00 0.00 0.00 55 1014.0
20260503001428 75 62 0.0 3.0 0.00 0.00 0.00 57 1013.7
20260503000926 76 17 0.0 3.0 0.00 0.00 0.00 56 1014.0
20260503000423 76 134 1.0 4.0 0.00 0.00 0.00 55 1013.7
20260502235920 76 355 1.0 4.0 0.00 0.00 0.00 52 1013.7
20260502235417 75 277 0.0 3.0 0.00 0.00 0.00 55 1013.7
20260502234914 75 30 1.0 3.0 0.00 0.00 0.00 54 1014.0
20260502234411 75 293 2.0 3.0 0.00 0.00 0.00 54 1014.0
20260502233908 76 11 2.0 4.0 0.00 0.00 0.00 53 1014.3
20260502233403 76 15 1.0 6.0 0.00 0.00 0.00 54 1014.3
20260502232900 76 72 1.0 3.0 0.00 0.00 0.00 54 1014.3
20260502232357 77 81 1.0 3.0 0.00 0.00 0.00 53 1014.3
20260502231853 77 5 0.0 4.0 0.00 0.00 0.00 53 1014.3
20260502231351 75 298 1.0 2.0 0.00 0.00 0.00 54 1014.7
20260502230849 75 20 0.0 2.0 0.00 0.00 0.00 59 1014.7
20260502230347 75 329 0.0 2.0 0.00 0.00 0.00 56 1014.7
20260502225844 76 296 0.0 1.0 0.00 0.00 0.00 57 1014.7
20260502225340 76 18 1.0 3.0 0.00 0.00 0.00 57 1015.0
20260502224837 76 42 0.0 3.0 0.00 0.00 0.00 59 1015.0
20260502224333 74 30 0.0 3.0 0.00 0.00 0.00 60 1014.7
20260502223831 74 58 1.0 2.0 0.00 0.00 0.00 60 1015.0
20260502223329 76 335 0.0 3.0 0.00 0.00 0.00 59 1015.0
20260502222826 75 2 1.0 2.0 0.00 0.00 0.00 63 1015.0
20260502222324 74 49 1.0 2.0 0.00 0.00 0.00 63 1015.0
20260502221819 73 89 1.0 3.0 0.00 0.00 0.00 64 1015.4
20260502221316 73 74 1.0 4.0 0.00 0.00 0.00 64 1015.4
20260502220813 73 352 0.0 2.0 0.00 0.00 0.00 62 1015.0
20260502220309 73 280 2.0 3.0 0.00 0.00 0.00 62 1015.0
20260502215806 73 37 0.0 3.0 0.00 0.00 0.00 64 1015.4
20260502215305 73 326 0.0 4.0 0.00 0.00 0.00 64 1015.4
20260502214800 73 14 0.0 6.0 0.00 0.00 0.00 64 1015.4
20260502214256 73 113 2.0 3.0 0.00 0.00 0.00 63 1015.4
20260502213754 74 296 0.0 3.0 0.00 0.00 0.00 62 1015.4
20260502213251 74 295 2.0 2.0 0.00 0.00 0.00 61 1015.4
20260502212750 73 13 0.0 3.0 0.00 0.00 0.00 65 1015.4
20260502212248 73 303 2.0 2.0 0.00 0.00 0.00 61 1015.4
20260502211743 73 280 0.0 3.0 0.00 0.00 0.00 65 1015.7
20260502211240 73 23 0.0 3.0 0.00 0.00 0.00 64 1015.7
20260502210737 73 325 0.0 2.0 0.00 0.00 0.00 64 1015.7
20260502210235 72 347 1.0 3.0 0.00 0.00 0.00 63 1015.7
20260502205732 72 48 1.0 2.0 0.00 0.00 0.00 65 1016.0
20260502205228 71 239 2.0 3.0 0.00 0.00 0.00 65 1015.7